createdAt,value
2019-05-19T00:01:11.876Z,9.22
2019-05-19T00:05:59.034Z,9.82
2019-05-19T00:11:07.554Z,10.00
2019-05-19T00:16:14.890Z,10.44
2019-05-19T00:21:35.079Z,10.12
2019-05-19T00:26:36.172Z,10.81
2019-05-19T00:31:26.495Z,10.99
2019-05-19T00:36:38.587Z,10.71
2019-05-19T00:41:27.079Z,11.04
2019-05-19T00:46:34.417Z,11.29
2019-05-19T00:51:54.786Z,11.83
2019-05-19T00:56:55.037Z,11.97
2019-05-19T01:01:55.346Z,12.40
2019-05-19T01:06:56.683Z,12.60
2019-05-19T01:11:44.209Z,13.58
2019-05-19T01:17:05.329Z,12.01
2019-05-19T01:21:53.466Z,12.21
2019-05-19T01:27:14.733Z,12.39
2019-05-19T01:32:15.931Z,12.10
2019-05-19T01:37:15.945Z,11.04
2019-05-19T01:42:17.322Z,12.32
2019-05-19T01:47:17.399Z,12.00
2019-05-19T01:52:05.883Z,12.47
2019-05-19T02:02:29.635Z,12.21
2019-05-19T02:07:30.745Z,12.55
2019-05-19T02:12:32.005Z,12.50
2019-05-19T02:17:19.419Z,12.33
2019-05-19T02:22:39.680Z,12.82
2019-05-19T02:27:39.905Z,13.52
2019-05-19T02:32:27.228Z,14.09
2019-05-19T02:37:47.285Z,15.29
2019-05-19T02:42:35.433Z,16.46
2019-05-19T02:47:56.613Z,16.33
2019-05-19T02:52:56.814Z,16.72
2019-05-19T02:57:44.903Z,16.08
2019-05-19T03:03:06.285Z,16.02
2019-05-19T03:08:07.476Z,16.98
2019-05-19T03:13:08.622Z,18.40
2019-05-19T03:18:09.955Z,17.65
2019-05-19T03:23:10.159Z,18.94
2019-05-19T03:27:58.467Z,17.43
2019-05-19T03:33:06.056Z,20.69
2019-05-19T03:38:26.268Z,21.69
2019-05-19T03:43:26.345Z,20.10
2019-05-19T03:48:19.053Z,19.52
2019-05-19T03:53:29.373Z,23.76
2019-05-19T03:58:30.630Z,21.71
2019-05-19T04:03:17.980Z,19.50
2019-05-19T04:08:38.195Z,20.18
2019-05-19T04:13:26.590Z,19.49
2019-05-19T04:18:47.683Z,18.55
2019-05-19T04:23:48.978Z,18.09
2019-05-19T04:28:49.244Z,16.11
2019-05-19T04:33:36.698Z,16.65
2019-05-19T04:38:56.748Z,16.97
2019-05-19T04:43:45.016Z,17.86
2019-05-19T04:49:06.030Z,17.09
2019-05-19T04:54:07.284Z,17.66
2019-05-19T04:59:08.541Z,17.77
2019-05-19T05:04:08.793Z,17.05
2019-05-19T05:09:10.103Z,18.07
2019-05-19T05:13:58.362Z,17.16
2019-05-19T05:24:23.770Z,20.13
2019-05-19T05:29:23.972Z,19.86
2019-05-19T05:34:24.277Z,20.86
2019-05-19T05:39:24.324Z,20.39
2019-05-19T05:44:12.862Z,21.61
2019-05-19T05:49:33.850Z,22.90
2019-05-19T05:59:26.340Z,24.15
2019-05-19T06:04:46.633Z,24.31
2019-05-19T06:09:46.662Z,25.14
2019-05-19T06:14:47.786Z,23.44
2019-05-19T06:19:49.077Z,22.99
2019-05-19T06:24:49.422Z,22.76
2019-05-19T06:29:36.807Z,22.67
2019-05-19T06:34:57.201Z,22.59
2019-05-19T06:39:57.423Z,19.05
2019-05-19T06:44:57.621Z,19.48
2019-05-19T06:49:58.760Z,20.14
2019-05-19T06:54:46.202Z,21.00
2019-05-19T07:00:06.433Z,12.08
2019-05-19T07:05:06.775Z,11.18
2019-05-19T07:10:07.053Z,11.97
2019-05-19T07:14:54.406Z,11.73
2019-05-19T07:20:01.725Z,13.36
2019-05-19T07:25:22.098Z,12.52
2019-05-19T07:30:22.198Z,11.66
2019-05-19T07:35:12.871Z,11.25
2019-05-19T07:40:24.034Z,11.21
2019-05-19T07:45:24.336Z,10.84
2019-05-19T07:50:12.806Z,9.73
2019-05-19T08:00:24.911Z,8.25
2019-05-19T08:05:46.009Z,8.00
2019-05-19T08:10:47.061Z,8.45
2019-05-19T08:15:35.721Z,6.35
2019-05-19T08:20:55.937Z,5.68
2019-05-19T08:25:59.962Z,5.92
2019-05-19T08:30:48.459Z,5.79
2019-05-19T08:36:10.111Z,4.76
2019-05-19T08:40:57.198Z,3.93
2019-05-19T08:42:17.665Z,4.12
2019-05-19T08:47:19.115Z,3.67
2019-05-19T08:52:11.189Z,3.94
2019-05-19T08:57:22.367Z,4.01
2019-05-19T09:02:22.594Z,3.84
2019-05-19T09:12:14.842Z,2.76
2019-05-19T09:17:36.167Z,3.08
2019-05-19T09:22:37.362Z,2.49
2019-05-19T09:27:37.819Z,2.37
2019-05-19T09:32:25.058Z,2.25
2019-05-19T09:37:33.563Z,2.55
2019-05-19T09:42:54.832Z,1.76
2019-05-19T09:47:55.136Z,1.56
2019-05-19T09:52:55.397Z,1.17
2019-05-19T09:57:55.508Z,1.11
2019-05-19T10:08:00.423Z,0.97
2019-05-19T10:13:01.701Z,1.08
2019-05-19T10:27:51.897Z,1.44
2019-05-19T10:32:59.281Z,1.38
2019-05-19T10:38:20.571Z,1.17
2019-05-19T10:43:08.933Z,0.94
2019-05-19T10:48:30.301Z,1.59
2019-05-19T10:53:30.520Z,1.21
2019-05-19T10:58:31.670Z,1.08
2019-05-19T11:08:36.838Z,1.06
2019-05-19T11:18:28.100Z,0.92
2019-05-19T11:23:48.265Z,0.99
2019-05-19T11:33:36.597Z,1.05
2019-05-19T11:38:45.984Z,1.25
2019-05-19T11:44:07.172Z,1.13
2019-05-19T11:54:11.525Z,1.41
2019-05-19T12:04:17.930Z,1.21
2019-05-19T12:09:19.218Z,0.99
2019-05-19T12:19:20.336Z,1.17
2019-05-19T12:29:15.181Z,1.11
2019-05-19T12:34:35.454Z,1.35
2019-05-19T12:39:35.698Z,1.12
2019-05-19T12:44:36.695Z,1.38
2019-05-19T12:49:25.094Z,1.33
2019-05-19T12:54:33.643Z,1.49
2019-05-19T13:04:42.416Z,1.89
2019-05-19T13:10:03.750Z,1.72
2019-05-19T13:11:25.205Z,1.86
2019-05-19T13:16:13.351Z,1.69
2019-05-19T13:21:22.904Z,1.77
2019-05-19T13:31:47.182Z,1.88
2019-05-19T13:36:47.460Z,1.69
2019-05-19T13:41:47.729Z,1.72
2019-05-19T13:46:49.126Z,1.82
2019-05-19T13:51:49.406Z,1.91
2019-05-19T13:56:50.423Z,1.44
2019-05-19T14:01:52.812Z,1.78
2019-05-19T14:06:40.269Z,1.50
2019-05-19T14:11:48.575Z,1.55
2019-05-19T14:16:56.868Z,1.88
2019-05-19T14:27:29.490Z,1.55
2019-05-19T14:32:06.871Z,1.64
2019-05-19T14:37:14.074Z,1.46
2019-05-19T14:42:35.298Z,1.76
2019-05-19T14:52:39.441Z,1.86
2019-05-19T15:17:42.328Z,1.88
2019-05-19T15:22:49.779Z,1.56
2019-05-19T15:28:09.935Z,1.51
2019-05-19T15:33:11.212Z,2.31
2019-05-19T15:37:58.513Z,1.54
2019-05-19T15:43:20.466Z,1.35
2019-05-19T15:48:20.623Z,1.30
2019-05-19T15:53:21.835Z,2.00
2019-05-19T15:58:24.117Z,1.22
2019-05-19T16:13:32.088Z,2.00
2019-05-19T16:18:32.476Z,1.99
2019-05-19T16:23:33.589Z,1.35
2019-05-19T16:28:34.890Z,1.52
2019-05-19T16:33:23.343Z,1.33
2019-05-19T16:38:31.688Z,1.14
2019-05-19T16:43:52.016Z,1.45
2019-05-19T16:53:57.055Z,1.33
2019-05-19T17:03:51.599Z,1.43
2019-05-19T17:08:59.828Z,1.15
2019-05-19T17:19:24.089Z,1.19
2019-05-19T17:24:24.504Z,1.25
2019-05-19T17:29:13.856Z,1.36
2019-05-19T17:34:34.047Z,1.30
2019-05-19T17:39:34.294Z,1.23
2019-05-19T17:44:34.479Z,1.40
2019-05-19T17:49:21.818Z,1.57
2019-05-19T17:54:29.399Z,1.75
2019-05-19T17:59:50.785Z,1.76
2019-05-19T18:04:52.270Z,1.83
2019-05-19T18:09:53.413Z,2.09
2019-05-19T18:14:40.736Z,1.68
2019-05-19T18:25:05.646Z,2.98
2019-05-19T18:30:06.710Z,4.67
2019-05-19T18:35:07.872Z,1.66
2019-05-19T18:40:09.126Z,1.85
2019-05-19T18:45:09.403Z,2.07
2019-05-19T18:50:09.654Z,2.08
2019-05-19T19:00:13.691Z,1.83
2019-05-19T19:05:14.255Z,2.29
2019-05-19T19:10:15.520Z,1.89
2019-05-19T19:15:03.078Z,2.14
2019-05-19T19:20:24.306Z,2.19
2019-05-19T19:25:25.761Z,1.83
2019-05-19T19:30:26.702Z,2.19
2019-05-19T19:35:13.711Z,2.51
2019-05-19T19:40:36.152Z,2.21
2019-05-19T19:45:23.788Z,2.88
2019-05-19T19:50:31.315Z,2.94
2019-05-19T19:55:39.474Z,2.98
2019-05-19T20:01:00.730Z,3.21
2019-05-19T20:05:51.130Z,3.19
2019-05-19T20:11:02.329Z,3.38
2019-05-19T20:16:02.773Z,3.14
2019-05-19T20:21:06.828Z,3.41
2019-05-19T20:26:07.618Z,3.71
2019-05-19T20:31:07.810Z,3.97
2019-05-19T20:36:08.176Z,4.29
2019-05-19T20:41:08.305Z,4.62
2019-05-19T20:46:08.542Z,4.88
2019-05-19T20:51:08.750Z,5.42
2019-05-19T20:56:08.897Z,5.34
2019-05-19T21:11:16.476Z,6.25
2019-05-19T21:16:18.722Z,7.33
2019-05-19T21:21:20.236Z,8.30
2019-05-19T21:31:24.468Z,8.12
2019-05-19T21:36:27.877Z,7.64
2019-05-19T21:41:28.276Z,7.56
2019-05-19T21:46:28.673Z,7.94
2019-05-19T21:51:17.119Z,7.73
2019-05-19T21:56:38.227Z,8.24
2019-05-19T22:01:26.560Z,7.49
2019-05-19T22:06:46.854Z,8.28
2019-05-19T22:11:34.132Z,9.31
2019-05-19T22:16:55.432Z,8.92
2019-05-19T22:21:55.563Z,8.76
2019-05-19T22:26:55.820Z,9.80
2019-05-19T22:31:43.229Z,9.77
2019-05-19T22:37:04.417Z,10.64
2019-05-19T22:41:52.790Z,10.30
2019-05-19T22:47:13.112Z,10.32
2019-05-19T22:52:13.372Z,10.35
2019-05-19T22:57:13.501Z,13.00
2019-05-19T23:02:14.723Z,11.70
2019-05-19T23:12:06.831Z,12.21
2019-05-19T23:17:27.989Z,12.39
2019-05-19T23:22:28.216Z,12.63
2019-05-19T23:27:28.468Z,13.43
2019-05-19T23:37:17.859Z,12.99
2019-05-19T23:42:25.066Z,13.14
2019-05-19T23:47:33.517Z,15.97
2019-05-19T23:52:53.593Z,16.63
2019-05-19T23:57:54.799Z,16.30
